sensor_id;sensor_type;location;lat;lon;timestamp;pressure;altitude;pressure_sealevel;temperature;humidity
50125;BME280;36023;48.670;6.184;2023-02-18T00:00:16;100153.09;;;16.83;52.31
50125;BME280;36023;48.670;6.184;2023-02-18T00:02:43;100146.13;;;16.83;52.44
50125;BME280;36023;48.670;6.184;2023-02-18T00:05:09;100145.25;;;16.83;52.32
50125;BME280;36023;48.670;6.184;2023-02-18T00:07:36;100139.19;;;16.81;52.30
50125;BME280;36023;48.670;6.184;2023-02-18T00:10:04;100138.31;;;16.82;52.31
50125;BME280;36023;48.670;6.184;2023-02-18T00:12:31;100145.25;;;16.83;52.27
50125;BME280;36023;48.670;6.184;2023-02-18T00:14:57;100136.56;;;16.81;52.46
50125;BME280;36023;48.670;6.184;2023-02-18T00:17:22;100134.84;;;16.81;52.32
50125;BME280;36023;48.670;6.184;2023-02-18T00:19:48;100124.38;;;16.81;52.26
50125;BME280;36023;48.670;6.184;2023-02-18T00:22:14;100135.72;;;16.80;52.24
50125;BME280;36023;48.670;6.184;2023-02-18T00:24:40;100133.16;;;16.79;52.06
50125;BME280;36023;48.670;6.184;2023-02-18T00:27:06;100145.31;;;16.80;52.16
50125;BME280;36023;48.670;6.184;2023-02-18T00:29:32;100134.88;;;16.80;52.22
50125;BME280;36023;48.670;6.184;2023-02-18T00:31:58;100137.47;;;16.80;52.06
50125;BME280;36023;48.670;6.184;2023-02-18T00:34:24;100130.50;;;16.80;52.23
50125;BME280;36023;48.670;6.184;2023-02-18T00:36:50;100124.41;;;16.80;52.06
50125;BME280;36023;48.670;6.184;2023-02-18T00:39:16;100124.41;;;16.80;52.31
50125;BME280;36023;48.670;6.184;2023-02-18T00:41:42;100115.66;;;16.81;52.02
50125;BME280;36023;48.670;6.184;2023-02-18T00:44:10;100111.31;;;16.80;52.38
50125;BME280;36023;48.670;6.184;2023-02-18T00:46:36;100111.31;;;16.80;52.13
50125;BME280;36023;48.670;6.184;2023-02-18T00:49:04;100108.69;;;16.80;52.10
50125;BME280;36023;48.670;6.184;2023-02-18T00:51:30;100115.69;;;16.79;52.00
50125;BME280;36023;48.670;6.184;2023-02-18T00:53:57;100106.09;;;16.80;52.12
50125;BME280;36023;48.670;6.184;2023-02-18T00:56:25;100102.63;;;16.79;51.90
50125;BME280;36023;48.670;6.184;2023-02-18T00:58:52;100107.84;;;16.79;52.02
50125;BME280;36023;48.670;6.184;2023-02-18T01:01:19;100111.38;;;16.78;52.05
50125;BME280;36023;48.670;6.184;2023-02-18T01:03:45;100110.47;;;16.79;51.97
50125;BME280;36023;48.670;6.184;2023-02-18T01:06:11;100113.09;;;16.79;51.93
50125;BME280;36023;48.670;6.184;2023-02-18T01:08:38;100108.75;;;16.78;51.77
50125;BME280;36023;48.670;6.184;2023-02-18T01:11:06;100112.22;;;16.79;51.93
50125;BME280;36023;48.670;6.184;2023-02-18T01:13:32;100117.47;;;16.79;51.85
50125;BME280;36023;48.670;6.184;2023-02-18T01:15:58;100117.47;;;16.79;51.84
50125;BME280;36023;48.670;6.184;2023-02-18T01:18:25;100106.13;;;16.78;51.85
50125;BME280;36023;48.670;6.184;2023-02-18T01:20:50;100099.19;;;16.77;51.80
50125;BME280;36023;48.670;6.184;2023-02-18T01:23:17;100099.19;;;16.77;51.84
50125;BME280;36023;48.670;6.184;2023-02-18T01:25:42;100094.81;;;16.78;51.69
50125;BME280;36023;48.670;6.184;2023-02-18T01:28:10;100092.19;;;16.78;51.68
50125;BME280;36023;48.670;6.184;2023-02-18T01:30:36;100085.25;;;16.77;51.73
50125;BME280;36023;48.670;6.184;2023-02-18T01:33:04;100089.59;;;16.78;51.89
50125;BME280;36023;48.670;6.184;2023-02-18T01:35:30;100089.63;;;16.76;51.70
50125;BME280;36023;48.670;6.184;2023-02-18T01:37:56;100087.88;;;16.77;51.76
50125;BME280;36023;48.670;6.184;2023-02-18T01:40:25;100083.50;;;16.77;51.68
50125;BME280;36023;48.670;6.184;2023-02-18T01:42:52;100080.94;;;16.76;51.71
50125;BME280;36023;48.670;6.184;2023-02-18T01:48:06;100083.56;;;16.76;51.60
50125;BME280;36023;48.670;6.184;2023-02-18T01:50:35;100075.69;;;16.76;51.42
50125;BME280;36023;48.670;6.184;2023-02-18T01:53:02;100082.69;;;16.75;51.69
50125;BME280;36023;48.670;6.184;2023-02-18T01:55:30;100083.56;;;16.76;51.57
50125;BME280;36023;48.670;6.184;2023-02-18T01:57:56;100091.41;;;16.76;51.55
50125;BME280;36023;48.670;6.184;2023-02-18T02:00:24;100088.84;;;16.74;51.63
50125;BME280;36023;48.670;6.184;2023-02-18T02:02:52;100087.06;;;16.75;51.77
50125;BME280;36023;48.670;6.184;2023-02-18T02:05:19;100090.59;;;16.74;51.59
50125;BME280;36023;48.670;6.184;2023-02-18T02:07:48;100087.06;;;16.75;51.68
50125;BME280;36023;48.670;6.184;2023-02-18T02:10:16;100085.31;;;16.75;51.62
50125;BME280;36023;48.670;6.184;2023-02-18T02:12:48;100084.47;;;16.75;51.62
50125;BME280;36023;48.670;6.184;2023-02-18T02:15:44;100087.97;;;16.74;51.53
50125;BME280;36023;48.670;6.184;2023-02-18T02:21:43;100088.84;;;16.74;51.52
50125;BME280;36023;48.670;6.184;2023-02-18T02:35:15;100059.19;;;16.74;51.49
50125;BME280;36023;48.670;6.184;2023-02-18T02:40:56;100065.28;;;16.74;51.44
50125;BME280;36023;48.670;6.184;2023-02-18T02:46:20;100051.34;;;16.74;51.56
50125;BME280;36023;48.670;6.184;2023-02-18T02:49:13;100054.84;;;16.73;51.54
50125;BME280;36023;48.670;6.184;2023-02-18T02:51:51;100047.88;;;16.73;51.44
50125;BME280;36023;48.670;6.184;2023-02-18T02:56:47;100041.75;;;16.74;51.44
50125;BME280;36023;48.670;6.184;2023-02-18T02:59:20;100033.03;;;16.74;51.49
50125;BME280;36023;48.670;6.184;2023-02-18T03:07:40;100022.59;;;16.72;51.43
50125;BME280;36023;48.670;6.184;2023-02-18T03:10:22;100022.59;;;16.72;51.44
50125;BME280;36023;48.670;6.184;2023-02-18T03:15:38;100010.38;;;16.73;51.24
50125;BME280;36023;48.670;6.184;2023-02-18T03:18:36;100011.28;;;16.71;51.24
50125;BME280;36023;48.670;6.184;2023-02-18T03:21:18;99997.34;;;16.71;51.33
50125;BME280;36023;48.670;6.184;2023-02-18T03:23:52;99992.97;;;16.71;51.24
50125;BME280;36023;48.670;6.184;2023-02-18T03:26:21;100000.81;;;16.71;51.22
50125;BME280;36023;48.670;6.184;2023-02-18T03:28:50;99993.88;;;16.70;51.35
50125;BME280;36023;48.670;6.184;2023-02-18T03:31:19;100005.19;;;16.71;51.28
50125;BME280;36023;48.670;6.184;2023-02-18T03:33:54;99993.88;;;16.70;51.10
50125;BME280;36023;48.670;6.184;2023-02-18T03:36:25;99997.41;;;16.69;51.27
50125;BME280;36023;48.670;6.184;2023-02-18T03:39:03;99986.94;;;16.69;51.40
50125;BME280;36023;48.670;6.184;2023-02-18T03:41:29;99997.41;;;16.69;51.34
50125;BME280;36023;48.670;6.184;2023-02-18T03:44:01;99999.16;;;16.69;51.56
50125;BME280;36023;48.670;6.184;2023-02-18T03:46:29;100006.13;;;16.68;51.19
50125;BME280;36023;48.670;6.184;2023-02-18T03:48:55;100000.03;;;16.69;51.29
50125;BME280;36023;48.670;6.184;2023-02-18T03:51:21;99992.16;;;16.69;51.36
50125;BME280;36023;48.670;6.184;2023-02-18T03:53:48;99997.41;;;16.69;51.47
50125;BME280;36023;48.670;6.184;2023-02-18T03:56:15;99994.78;;;16.69;51.50
50125;BME280;36023;48.670;6.184;2023-02-18T03:58:43;99994.78;;;16.69;51.41
50125;BME280;36023;48.670;6.184;2023-02-18T04:01:08;99992.16;;;16.69;51.40
50125;BME280;36023;48.670;6.184;2023-02-18T04:03:34;99994.78;;;16.69;51.22
50125;BME280;36023;48.670;6.184;2023-02-18T04:06:00;99992.16;;;16.69;51.28
50125;BME280;36023;48.670;6.184;2023-02-18T04:08:25;99992.16;;;16.69;51.31
50125;BME280;36023;48.670;6.184;2023-02-18T04:10:51;100000.03;;;16.69;51.28
50125;BME280;36023;48.670;6.184;2023-02-18T04:13:17;99997.41;;;16.69;51.40
50125;BME280;36023;48.670;6.184;2023-02-18T04:15:44;99992.16;;;16.69;51.32
50125;BME280;36023;48.670;6.184;2023-02-18T04:18:10;99996.53;;;16.69;51.56
50125;BME280;36023;48.670;6.184;2023-02-18T04:20:36;99993.03;;;16.70;51.41
50125;BME280;36023;48.670;6.184;2023-02-18T04:23:03;99992.16;;;16.69;51.48
50125;BME280;36023;48.670;6.184;2023-02-18T04:25:29;99999.16;;;16.69;51.49
50125;BME280;36023;48.670;6.184;2023-02-18T04:27:55;99997.41;;;16.69;51.36
50125;BME280;36023;48.670;6.184;2023-02-18T04:30:20;100002.63;;;16.69;51.26
50125;BME280;36023;48.670;6.184;2023-02-18T04:32:47;99992.16;;;16.69;51.38
50125;BME280;36023;48.670;6.184;2023-02-18T04:35:14;99995.66;;;16.68;51.27
50125;BME280;36023;48.670;6.184;2023-02-18T04:37:39;99990.44;;;16.68;51.21
50125;BME280;36023;48.670;6.184;2023-02-18T04:40:06;99993.03;;;16.68;51.21
50125;BME280;36023;48.670;6.184;2023-02-18T04:42:32;99997.41;;;16.69;51.27
50125;BME280;36023;48.670;6.184;2023-02-18T04:44:59;99986.09;;;16.69;51.17
50125;BME280;36023;48.670;6.184;2023-02-18T04:47:25;99992.16;;;16.69;51.36
50125;BME280;36023;48.670;6.184;2023-02-18T04:49:51;99984.34;;;16.68;51.20
50125;BME280;36023;48.670;6.184;2023-02-18T04:52:17;99985.19;;;16.68;51.09
50125;BME280;36023;48.670;6.184;2023-02-18T04:54:44;99986.97;;;16.68;51.07
50125;BME280;36023;48.670;6.184;2023-02-18T04:57:12;99985.19;;;16.68;51.17
50125;BME280;36023;48.670;6.184;2023-02-18T04:59:38;99988.72;;;16.67;51.12
50125;BME280;36023;48.670;6.184;2023-02-18T05:02:04;99985.19;;;16.68;51.27
50125;BME280;36023;48.670;6.184;2023-02-18T05:04:30;99992.19;;;16.68;51.13
50125;BME280;36023;48.670;6.184;2023-02-18T05:06:56;99984.34;;;16.68;51.25
50125;BME280;36023;48.670;6.184;2023-02-18T05:09:22;99975.66;;;16.67;51.20
50125;BME280;36023;48.670;6.184;2023-02-18T05:11:48;99972.19;;;16.67;51.15
50125;BME280;36023;48.670;6.184;2023-02-18T05:14:15;99983.50;;;16.67;51.21
50125;BME280;36023;48.670;6.184;2023-02-18T05:16:40;99976.56;;;16.66;51.26
50125;BME280;36023;48.670;6.184;2023-02-18T05:19:06;99968.72;;;16.66;51.20
50125;BME280;36023;48.670;6.184;2023-02-18T05:21:32;99963.47;;;16.66;51.14
50125;BME280;36023;48.670;6.184;2023-02-18T05:23:58;99965.22;;;16.66;51.27
50125;BME280;36023;48.670;6.184;2023-02-18T05:26:24;99964.38;;;16.65;51.08
50125;BME280;36023;48.670;6.184;2023-02-18T05:28:50;99960.00;;;16.66;51.05
50125;BME280;36023;48.670;6.184;2023-02-18T05:31:16;99954.78;;;16.64;51.13
50125;BME280;36023;48.670;6.184;2023-02-18T05:33:42;99954.78;;;16.64;51.22
50125;BME280;36023;48.670;6.184;2023-02-18T05:36:07;99962.66;;;16.64;51.08
50125;BME280;36023;48.670;6.184;2023-02-18T05:38:33;99954.78;;;16.64;51.10
50125;BME280;36023;48.670;6.184;2023-02-18T05:40:59;99952.19;;;16.64;51.05
50125;BME280;36023;48.670;6.184;2023-02-18T05:43:24;99951.31;;;16.64;51.07
50125;BME280;36023;48.670;6.184;2023-02-18T05:45:51;99952.19;;;16.64;51.08
50125;BME280;36023;48.670;6.184;2023-02-18T05:48:18;99948.72;;;16.64;51.04
50125;BME280;36023;48.670;6.184;2023-02-18T05:50:44;99954.84;;;16.63;50.98
50125;BME280;36023;48.670;6.184;2023-02-18T05:53:10;99953.03;;;16.65;50.99
50125;BME280;36023;48.670;6.184;2023-02-18T05:55:36;99961.78;;;16.64;50.96
50125;BME280;36023;48.670;6.184;2023-02-18T05:58:05;99958.31;;;16.63;50.86
50125;BME280;36023;48.670;6.184;2023-02-18T06:00:31;99962.66;;;16.64;51.22
50125;BME280;36023;48.670;6.184;2023-02-18T06:02:58;99961.78;;;16.64;51.08
50125;BME280;36023;48.670;6.184;2023-02-18T06:05:24;99962.66;;;16.64;50.92
50125;BME280;36023;48.670;6.184;2023-02-18T06:07:50;99961.78;;;16.64;50.97
50125;BME280;36023;48.670;6.184;2023-02-18T06:10:16;99953.03;;;16.65;51.06
50125;BME280;36023;48.670;6.184;2023-02-18T06:12:43;99962.66;;;16.64;51.32
50125;BME280;36023;48.670;6.184;2023-02-18T06:15:09;99952.19;;;16.64;51.00
50125;BME280;36023;48.670;6.184;2023-02-18T06:17:35;99967.88;;;16.64;50.82
50125;BME280;36023;48.670;6.184;2023-02-18T06:20:00;99949.56;;;16.64;50.97
50125;BME280;36023;48.670;6.184;2023-02-18T06:22:27;99946.09;;;16.64;51.00
50125;BME280;36023;48.670;6.184;2023-02-18T06:24:53;99952.19;;;16.64;50.92
50125;BME280;36023;48.670;6.184;2023-02-18T06:27:18;99949.56;;;16.64;51.05
50125;BME280;36023;48.670;6.184;2023-02-18T06:29:44;99955.66;;;16.65;50.82
50125;BME280;36023;48.670;6.184;2023-02-18T06:32:11;99958.25;;;16.65;51.06
50125;BME280;36023;48.670;6.184;2023-02-18T06:34:37;99959.16;;;16.64;50.95
50125;BME280;36023;48.670;6.184;2023-02-18T06:37:02;99962.66;;;16.64;50.87
50125;BME280;36023;48.670;6.184;2023-02-18T06:39:28;99951.31;;;16.64;50.94
50125;BME280;36023;48.670;6.184;2023-02-18T06:41:53;99967.88;;;16.64;50.90
50125;BME280;36023;48.670;6.184;2023-02-18T06:44:19;99970.50;;;16.64;50.40
50125;BME280;36023;48.670;6.184;2023-02-18T06:46:45;99967.94;;;16.63;50.84
50125;BME280;36023;48.670;6.184;2023-02-18T06:49:10;99975.72;;;16.64;50.97
50125;BME280;36023;48.670;6.184;2023-02-18T06:51:36;99967.94;;;16.63;50.88
50125;BME280;36023;48.670;6.184;2023-02-18T06:54:03;99972.25;;;16.64;50.75
50125;BME280;36023;48.670;6.184;2023-02-18T06:56:30;99960.94;;;16.63;51.08
50125;BME280;36023;48.670;6.184;2023-02-18T06:58:56;99951.38;;;16.62;50.87
50125;BME280;36023;48.670;6.184;2023-02-18T07:01:21;99960.06;;;16.63;50.86
50125;BME280;36023;48.670;6.184;2023-02-18T07:03:47;99959.22;;;16.62;50.88
50125;BME280;36023;48.670;6.184;2023-02-18T07:06:12;99956.56;;;16.64;51.03
50125;BME280;36023;48.670;6.184;2023-02-18T07:08:38;99957.47;;;16.63;51.17
50125;BME280;36023;48.670;6.184;2023-02-18T07:11:04;99946.94;;;16.64;50.83
50125;BME280;36023;48.670;6.184;2023-02-18T07:13:30;99961.84;;;16.62;50.71
50125;BME280;36023;48.670;6.184;2023-02-18T07:15:55;99960.06;;;16.63;50.80
50125;BME280;36023;48.670;6.184;2023-02-18T07:18:21;99962.75;;;16.61;50.77
50125;BME280;36023;48.670;6.184;2023-02-18T07:20:47;99961.91;;;16.61;50.74
50125;BME280;36023;48.670;6.184;2023-02-18T07:23:12;99968.84;;;16.62;50.67
50125;BME280;36023;48.670;6.184;2023-02-18T07:25:38;99973.22;;;16.61;50.61
50125;BME280;36023;48.670;6.184;2023-02-18T07:28:04;99970.59;;;16.61;50.78
50125;BME280;36023;48.670;6.184;2023-02-18T07:30:29;99967.13;;;16.61;50.82
50125;BME280;36023;48.670;6.184;2023-02-18T07:32:56;99967.13;;;16.61;50.88
50125;BME280;36023;48.670;6.184;2023-02-18T07:35:23;99966.28;;;16.60;50.70
50125;BME280;36023;48.670;6.184;2023-02-18T07:37:49;99968.84;;;16.62;50.83
50125;BME280;36023;48.670;6.184;2023-02-18T07:40:18;99961.91;;;16.61;50.71
50125;BME280;36023;48.670;6.184;2023-02-18T07:42:44;99971.50;;;16.60;50.69
50125;BME280;36023;48.670;6.184;2023-02-18T07:45:11;99966.28;;;16.60;50.82
50125;BME280;36023;48.670;6.184;2023-02-18T07:47:37;99970.66;;;16.60;50.56
50125;BME280;36023;48.670;6.184;2023-02-18T07:50:04;99968.03;;;16.60;50.53
50125;BME280;36023;48.670;6.184;2023-02-18T07:52:30;99964.50;;;16.61;50.80
50125;BME280;36023;48.670;6.184;2023-02-18T07:55:01;99961.03;;;16.60;50.68
50125;BME280;36023;48.670;6.184;2023-02-18T07:57:29;99966.28;;;16.60;50.67
50125;BME280;36023;48.670;6.184;2023-02-18T07:59:56;99958.44;;;16.60;50.54
50125;BME280;36023;48.670;6.184;2023-02-18T08:02:23;99967.97;;;16.61;50.66
50125;BME280;36023;48.670;6.184;2023-02-18T08:04:49;99967.97;;;16.61;50.73
50125;BME280;36023;48.670;6.184;2023-02-18T08:07:17;99967.13;;;16.61;50.59
50125;BME280;36023;48.670;6.184;2023-02-18T08:09:43;99967.13;;;16.61;50.69
50125;BME280;36023;48.670;6.184;2023-02-18T08:12:09;99961.03;;;16.60;50.46
50125;BME280;36023;48.670;6.184;2023-02-18T08:14:35;99967.13;;;16.61;50.53
50125;BME280;36023;48.670;6.184;2023-02-18T08:17:01;99967.13;;;16.61;50.45
50125;BME280;36023;48.670;6.184;2023-02-18T08:19:27;99961.03;;;16.60;50.39
50125;BME280;36023;48.670;6.184;2023-02-18T08:21:52;99964.50;;;16.61;50.66
50125;BME280;36023;48.670;6.184;2023-02-18T08:24:18;99958.44;;;16.60;50.53
50125;BME280;36023;48.670;6.184;2023-02-18T08:26:44;99960.13;;;16.61;50.54
50125;BME280;36023;48.670;6.184;2023-02-18T08:29:09;99961.91;;;16.61;50.48
50125;BME280;36023;48.670;6.184;2023-02-18T08:31:36;99954.94;;;16.60;50.46
50125;BME280;36023;48.670;6.184;2023-02-18T08:34:04;99943.63;;;16.59;50.35
50125;BME280;36023;48.670;6.184;2023-02-18T08:36:30;99954.94;;;16.60;50.46
50125;BME280;36023;48.670;6.184;2023-02-18T08:38:56;99944.50;;;16.60;50.64
50125;BME280;36023;48.670;6.184;2023-02-18T08:41:22;99940.97;;;16.61;50.50
50125;BME280;36023;48.670;6.184;2023-02-18T08:43:48;99940.13;;;16.60;50.40
50125;BME280;36023;48.670;6.184;2023-02-18T08:46:15;99944.50;;;16.60;50.47
50125;BME280;36023;48.670;6.184;2023-02-18T08:48:41;99951.50;;;16.59;50.41
50125;BME280;36023;48.670;6.184;2023-02-18T08:51:12;99936.69;;;16.58;50.40
50125;BME280;36023;48.670;6.184;2023-02-18T08:53:38;99946.25;;;16.59;50.47
50125;BME280;36023;48.670;6.184;2023-02-18T08:56:08;99940.16;;;16.59;50.40
50125;BME280;36023;48.670;6.184;2023-02-18T08:58:34;99959.34;;;16.59;50.32
50125;BME280;36023;48.670;6.184;2023-02-18T09:01:05;99953.25;;;16.59;50.49
50125;BME280;36023;48.670;6.184;2023-02-18T09:03:32;99953.25;;;16.59;50.42
50125;BME280;36023;48.670;6.184;2023-02-18T09:05:58;99944.56;;;16.58;50.29
50125;BME280;36023;48.670;6.184;2023-02-18T09:08:24;99956.78;;;16.58;50.17
50125;BME280;36023;48.670;6.184;2023-02-18T09:10:54;99958.47;;;16.59;50.28
50125;BME280;36023;48.670;6.184;2023-02-18T09:13:20;99949.78;;;16.58;50.40
50125;BME280;36023;48.670;6.184;2023-02-18T09:16:00;99952.41;;;16.58;50.37
50125;BME280;36023;48.670;6.184;2023-02-18T09:18:28;99950.66;;;16.57;50.35
50125;BME280;36023;48.670;6.184;2023-02-18T09:20:56;99951.53;;;16.58;50.28
50125;BME280;36023;48.670;6.184;2023-02-18T09:23:23;99954.16;;;16.58;50.35
50125;BME280;36023;48.670;6.184;2023-02-18T09:25:49;99950.66;;;16.57;50.39
50125;BME280;36023;48.670;6.184;2023-02-18T09:28:15;99955.88;;;16.57;50.28
50125;BME280;36023;48.670;6.184;2023-02-18T09:30:40;99955.88;;;16.57;50.41
50125;BME280;36023;48.670;6.184;2023-02-18T09:33:07;99954.19;;;16.56;50.50
50125;BME280;36023;48.670;6.184;2023-02-18T09:35:45;99950.66;;;16.57;50.48
50125;BME280;36023;48.670;6.184;2023-02-18T09:38:12;99958.50;;;16.57;50.21
50125;BME280;36023;48.670;6.184;2023-02-18T09:40:43;99956.78;;;16.58;50.33
50125;BME280;36023;48.670;6.184;2023-02-18T09:43:21;99961.13;;;16.57;50.50
50125;BME280;36023;48.670;6.184;2023-02-18T09:45:50;99954.16;;;16.58;50.55
50125;BME280;36023;48.670;6.184;2023-02-18T09:48:16;99959.38;;;16.58;50.71
50125;BME280;36023;48.670;6.184;2023-02-18T09:50:46;99967.22;;;16.58;50.45
50125;BME280;36023;48.670;6.184;2023-02-18T09:53:14;99968.94;;;16.59;50.56
50125;BME280;36023;48.670;6.184;2023-02-18T09:55:40;99966.31;;;16.59;50.47
50125;BME280;36023;48.670;6.184;2023-02-18T09:58:18;99972.41;;;16.59;50.71
50125;BME280;36023;48.670;6.184;2023-02-18T10:00:53;99975.94;;;16.58;50.55
50125;BME280;36023;48.670;6.184;2023-02-18T10:03:25;99986.38;;;16.58;50.55
50125;BME280;36023;48.670;6.184;2023-02-18T10:06:01;99975.03;;;16.59;50.55
50125;BME280;36023;48.670;6.184;2023-02-18T10:08:35;99964.56;;;16.59;50.47
50125;BME280;36023;48.670;6.184;2023-02-18T10:11:01;99969.78;;;16.59;50.43
50125;BME280;36023;48.670;6.184;2023-02-18T10:13:29;99982.88;;;16.59;50.47
50125;BME280;36023;48.670;6.184;2023-02-18T10:15:55;99978.50;;;16.60;50.51
50125;BME280;36023;48.670;6.184;2023-02-18T10:18:27;99969.78;;;16.59;50.49
50125;BME280;36023;48.670;6.184;2023-02-18T10:21:09;99972.41;;;16.59;50.52
50125;BME280;36023;48.670;6.184;2023-02-18T10:23:39;99968.94;;;16.59;50.47
50125;BME280;36023;48.670;6.184;2023-02-18T10:26:11;99970.66;;;16.60;50.42
50125;BME280;36023;48.670;6.184;2023-02-18T10:28:39;99968.94;;;16.59;50.48
50125;BME280;36023;48.670;6.184;2023-02-18T10:31:07;99966.31;;;16.59;50.38
50125;BME280;36023;48.670;6.184;2023-02-18T10:33:44;99968.09;;;16.58;50.38
50125;BME280;36023;48.670;6.184;2023-02-18T10:36:33;99975.94;;;16.58;50.48
50125;BME280;36023;48.670;6.184;2023-02-18T10:39:06;99968.09;;;16.58;50.29
50125;BME280;36023;48.670;6.184;2023-02-18T10:42:19;99977.63;;;16.59;50.15
50125;BME280;36023;48.670;6.184;2023-02-18T10:44:48;99963.72;;;16.59;50.20
50125;BME280;36023;48.670;6.184;2023-02-18T10:48:06;99973.31;;;16.58;50.32
50125;BME280;36023;48.670;6.184;2023-02-18T10:53:09;99975.94;;;16.57;50.24
50125;BME280;36023;48.670;6.184;2023-02-18T10:55:44;99974.19;;;16.57;50.27
50125;BME280;36023;48.670;6.184;2023-02-18T10:58:23;99986.38;;;16.58;50.47
50125;BME280;36023;48.670;6.184;2023-02-18T11:00:52;99981.16;;;16.58;50.25
50125;BME280;36023;48.670;6.184;2023-02-18T11:03:23;99979.41;;;16.57;50.39
50125;BME280;36023;48.670;6.184;2023-02-18T11:05:52;99965.50;;;16.57;50.24
50125;BME280;36023;48.670;6.184;2023-02-18T11:08:22;99967.22;;;16.58;50.67
50125;BME280;36023;48.670;6.184;2023-02-18T11:10:49;99980.16;;;16.62;51.61
50125;BME280;36023;48.670;6.184;2023-02-18T11:13:22;99977.28;;;16.71;52.33
50125;BME280;36023;48.670;6.184;2023-02-18T11:16:03;99969.13;;;16.81;52.65
50125;BME280;36023;48.670;6.184;2023-02-18T11:18:36;99980.31;;;16.86;52.57
50125;BME280;36023;48.670;6.184;2023-02-18T11:23:50;99979.25;;;16.93;52.69
50125;BME280;36023;48.670;6.184;2023-02-18T11:26:17;99984.34;;;16.96;52.79
50125;BME280;36023;48.670;6.184;2023-02-18T11:28:48;99983.38;;;17.00;52.60
50125;BME280;36023;48.670;6.184;2023-02-18T11:31:20;99989.41;;;17.02;52.50
50125;BME280;36023;48.670;6.184;2023-02-18T11:33:53;99987.56;;;17.06;52.47
50125;BME280;36023;48.670;6.184;2023-02-18T11:36:31;99990.13;;;17.07;52.48
50125;BME280;36023;48.670;6.184;2023-02-18T11:39:05;99976.06;;;17.10;52.37
50125;BME280;36023;48.670;6.184;2023-02-18T11:41:42;99983.88;;;17.11;52.42
50125;BME280;36023;48.670;6.184;2023-02-18T11:47:04;99993.28;;;17.17;52.24
50125;BME280;36023;48.670;6.184;2023-02-18T11:49:31;99992.38;;;17.18;52.04
50125;BME280;36023;48.670;6.184;2023-02-18T11:52:13;99997.56;;;17.19;52.10
50125;BME280;36023;48.670;6.184;2023-02-18T11:54:40;100000.09;;;17.22;51.90
50125;BME280;36023;48.670;6.184;2023-02-18T11:57:10;99999.19;;;17.23;52.01
50125;BME280;36023;48.670;6.184;2023-02-18T11:59:38;99999.13;;;17.25;52.00
50125;BME280;36023;48.670;6.184;2023-02-18T12:04:52;100002.53;;;17.29;51.76
50125;BME280;36023;48.670;6.184;2023-02-18T12:07:40;100005.09;;;17.30;51.83
50125;BME280;36023;48.670;6.184;2023-02-18T12:10:14;100009.34;;;17.33;51.66
50125;BME280;36023;48.670;6.184;2023-02-18T12:12:47;99993.56;;;17.36;51.63
50125;BME280;36023;48.670;6.184;2023-02-18T12:15:21;99995.31;;;17.35;51.48
50125;BME280;36023;48.670;6.184;2023-02-18T12:21:29;99980.41;;;17.37;51.23
50125;BME280;36023;48.670;6.184;2023-02-18T12:27:00;99982.00;;;17.41;51.19
50125;BME280;36023;48.670;6.184;2023-02-18T12:29:34;99975.84;;;17.44;51.11
50125;BME280;36023;48.670;6.184;2023-02-18T12:32:14;99977.53;;;17.45;51.09
50125;BME280;36023;48.670;6.184;2023-02-18T12:34:55;99972.25;;;17.46;50.87
50125;BME280;36023;48.670;6.184;2023-02-18T12:45:48;99969.50;;;17.49;50.86
50125;BME280;36023;48.670;6.184;2023-02-18T12:51:10;99951.16;;;17.51;50.62
50125;BME280;36023;48.670;6.184;2023-02-18T13:05:06;99939.44;;;17.61;51.12
50125;BME280;36023;48.670;6.184;2023-02-18T13:12:57;99929.75;;;17.63;51.24
50125;BME280;36023;48.670;6.184;2023-02-18T13:15:39;99924.63;;;17.60;51.26
50125;BME280;36023;48.670;6.184;2023-02-18T13:18:11;99928.16;;;17.59;51.25
50125;BME280;36023;48.670;6.184;2023-02-18T13:20:42;99924.72;;;17.57;51.29
50125;BME280;36023;48.670;6.184;2023-02-18T13:23:16;99928.19;;;17.58;51.40
50125;BME280;36023;48.670;6.184;2023-02-18T13:25:43;99926.44;;;17.58;51.22
50125;BME280;36023;48.670;6.184;2023-02-18T13:34:02;99920.47;;;17.54;51.07
50125;BME280;36023;48.670;6.184;2023-02-18T13:39:05;99912.75;;;17.50;51.03
50125;BME280;36023;48.670;6.184;2023-02-18T13:41:51;99909.34;;;17.48;50.74
50125;BME280;36023;48.670;6.184;2023-02-18T13:45:03;99908.53;;;17.46;50.80
50125;BME280;36023;48.670;6.184;2023-02-18T13:47:44;99898.97;;;17.45;50.88
50125;BME280;36023;48.670;6.184;2023-02-18T13:58:13;99886.09;;;17.39;50.67
50125;BME280;36023;48.670;6.184;2023-02-18T14:00:47;99887.91;;;17.37;50.60
50125;BME280;36023;48.670;6.184;2023-02-18T14:05:46;99876.63;;;17.35;50.55
50125;BME280;36023;48.670;6.184;2023-02-18T14:08:28;99871.38;;;17.35;50.42
50125;BME280;36023;48.670;6.184;2023-02-18T14:14:12;99867.19;;;17.31;50.51
50125;BME280;36023;48.670;6.184;2023-02-18T14:19:42;99852.25;;;17.33;50.45
50125;BME280;36023;48.670;6.184;2023-02-18T14:27:39;99848.53;;;17.40;50.30
50125;BME280;36023;48.670;6.184;2023-02-18T14:32:48;99850.34;;;17.38;50.08
50125;BME280;36023;48.670;6.184;2023-02-18T14:41:18;99846.06;;;17.35;49.76
50125;BME280;36023;48.670;6.184;2023-02-18T14:49:43;99862.81;;;17.31;49.52
50125;BME280;36023;48.670;6.184;2023-02-18T14:52:21;99862.91;;;17.28;49.51
50125;BME280;36023;48.670;6.184;2023-02-18T14:54:49;99859.44;;;17.27;49.51
50125;BME280;36023;48.670;6.184;2023-02-18T14:57:16;99852.47;;;17.26;49.24
50125;BME280;36023;48.670;6.184;2023-02-18T14:59:44;99845.53;;;17.25;49.31
50125;BME280;36023;48.670;6.184;2023-02-18T15:02:17;99848.22;;;17.24;49.50
50125;BME280;36023;48.670;6.184;2023-02-18T15:04:44;99858.69;;;17.24;49.46
50125;BME280;36023;48.670;6.184;2023-02-18T15:07:10;99849.19;;;17.21;49.72
50125;BME280;36023;48.670;6.184;2023-02-18T15:09:49;99843.94;;;17.21;49.67
50125;BME280;36023;48.670;6.184;2023-02-18T15:12:20;99839.50;;;17.23;49.69